METAR AND TAF INFORMATION
METAR FOR EDDE
ADDS - METARS form results

(1615 UTC 24 September 2022)
Data provider http://aviationweather.gov/metar/data/
 
METAR text: EDDE 241550Z AUTO 35004KT 320V020 CAVOK 17/07 Q1012 NOSIG
Conditions at: EDDE (ERFURT/BINDERSLE, DE) observed 1550 UTC 24 September 2022
Temperature: 17.0°C (63°F)
Dewpoint: 7.0°C (45°F) [RH = 52%]
Pressure (altimeter): 29.88 inches Hg (1012.0 mb)
Winds: from the N (350 degrees) at 5 MPH (4 knots; 2.1 m/s)
Visibility: 6 or more miles (10+ km)
Ceiling: ceiling and visibility are OK
Clouds: unknown
Weather: no significant weather observed at this time

METAR text: EDDE 241520Z AUTO 35006KT CAVOK 17/06 Q1012 NOSIG
Conditions at: EDDE (ERFURT/BINDERSLE, DE) observed 1520 UTC 24 September 2022
Temperature: 17.0°C (63°F)
Dewpoint: 6.0°C (43°F) [RH = 48%]
Pressure (altimeter): 29.88 inches Hg (1012.0 mb)
Winds: from the N (350 degrees) at 7 MPH (6 knots; 3.1 m/s)
Visibility: 6 or more miles (10+ km)
Ceiling: ceiling and visibility are OK
Clouds: unknown
Weather: no significant weather observed at this time

Forecast for: EDDE (ERFURT/BINDERSLE, DE)
Text: TAF EDDE 241100Z 2412/2512 VRB03KT CAVOK
Forecast period: 1200 UTC 24 September 2022 to 1200 UTC 25 September 2022
Forecast type: FROM: standard forecast or significant change
Winds: variable direction winds at 3 MPH (3 knots; 1.5 m/s)
Visibility: 6 or more miles (10+ km)
Ceiling: unknown
Clouds: missing
Weather: NSW  (no significant weather)

 AIRPORT MAP

 RUNWAY INFORMATION
Runway 10 Runway length 8530 ft Runway width 164 ft
Runway elevation 1025 ft Runway displaced threshold 0 ft Runway heading 98
Runway 28 Runway length 8530 ft Runway width 164 ft
Runway elevation 1016 ft Runway displaced threshold 689 ft Runway heading 278

 AIRPORT FREQUENCIES
Type APP Name MUNCHEN RA Frequency 132.3 MHZ
Type ATIS Name ATIS Frequency 133.45 MHZ
Type GND Name GND Frequency 121.75 MHZ
Type INFO Name MUNCHEN IN Frequency 120.65 MHZ
Type RMP Name APRON Frequency 121.9 MHZ
Type TWR Name TWR Frequency 121.15 MHZ

 AIRPORT NEAR NAVIGATION AIDS
Type DME Name Erfurt Frequency 112050 KHZ
Type VOR-DME Name Erfurt Frequency 113850 KHZ
Type NDB Name Erfurt Frequency 425 KHZ